Data for 09/16/2014

Time Sea-Level Adjusted Pressure Absolute Pressure Temperature Relative Humidity Dew Point   
(mb) (inHg) (mb) (inHg) (C) (F) (%) (C) (F)
00:05 1021 30.15 850 25.1 12.2 53.9 37 -2.2 28.1
00:10 1021 30.15 850 25.1 12.6 54.6 36 -2 28.5
00:15 1021 30.15 850 25.1 12.6 54.6 36 -2 28.4
00:20 1021 30.15 850 25.1 12.7 54.9 36 -1.7 28.9
00:25 1021 30.15 850 25.1 12.2 53.9 39 -1.2 29.8
00:30 1021 30.15 850 25.1 12 53.6 37 -2.3 27.9
00:35 1021 30.15 851 25.13 12.5 54.5 36 -2.1 28.2
00:40 1021 30.15 851 25.13 12.6 54.7 33 -3.1 26.5
00:45 1021 30.15 851 25.13 13 55.5 34 -2.2 28
00:50 1021 30.15 851 25.13 12.8 55 37 -1.4 29.5
00:55 1021 30.15 851 25.13 12.4 54.2 36 -2.3 27.9
01:00 1021 30.15 851 25.13 12.7 54.9 33 -2.9 26.8
01:05 1021 30.15 851 25.13 13 55.4 33 -2.9 26.8
01:10 1021 30.15 851 25.13 13.1 55.5 33 -2.9 26.8
01:15 1021 30.15 851 25.13 12.9 55.1 34 -2.6 27.4
01:20 1021 30.15 851 25.13 12.5 54.5 34 -2.7 27.1
01:25 1021 30.15 851 25.13 12.5 54.5 36 -2.2 28.1
01:30 1021 30.15 851 25.13 12.2 53.9 38 -1.7 28.9
01:35 1021 30.15 851 25.13 12.1 53.8 36 -2.5 27.6
01:40 1021 30.15 851 25.13 12.4 54.2 36 -2.3 27.8
01:45 1021 30.15 850 25.1 12.3 54.1 37 -1.8 28.8
01:50 1021 30.15 850 25.1 11.8 53.3 41 -0.9 30.4
01:55 1021 30.15 850 25.1 11 51.7 44 -0.7 30.8
02:00 1021 30.15 850 25.1 10.8 51.4 44 -0.8 30.5
02:05 1021 30.15 850 25.1 10.8 51.4 42 -1.6 29.2
02:10 1021 30.15 850 25.1 10.8 51.5 43 -1.2 29.9
02:15 1021 30.15 850 25.1 10.8 51.5 40 -2 28.3
02:20 1021 30.15 850 25.1 11.3 52.3 41 -1.5 29.3
02:25 1021 30.15 850 25.1 11 51.9 41 -1.6 29.2
02:30 1021 30.15 850 25.1 11 51.8 40 -2 28.5
02:35 1021 30.15 850 25.1 11.1 52 40 -2 28.4
02:40 1021 30.15 850 25.1 11.1 52 41 -1.7 29
02:45 1021 30.15 850 25.1 11 51.8 40 -2.1 28.2
02:50 1021 30.15 850 25.1 11.3 52.4 39 -2.1 28.2
02:55 1021 30.15 850 25.1 11.5 52.6 38 -2.3 27.8
03:00 1021 30.15 850 25.1 11.5 52.7 38 -2.1 28.2
03:05 1021 30.15 850 25.1 11.8 53.2 37 -2.4 27.6
03:10 1021 30.15 850 25.1 11.8 53.3 37 -2.2 28.1
03:15 1021 30.15 850 25.1 11.5 52.6 38 -2.2 28
03:20 1021 30.15 850 25.1 11.4 52.5 39 -2 28.4
03:25 1021 30.15 850 25.1 11.3 52.4 38 -2.3 27.9
03:30 1021 30.15 850 25.1 11.6 52.9 37 -2.7 27.1
03:35 1021 30.15 850 25.1 11.8 53.3 37 -2.4 27.6
03:40 1021 30.15 850 25.1 11.8 53.2 39 -1.8 28.8
03:45 1021 30.15 850 25.1 11.5 52.6 38 -2.4 27.6
03:50 1021 30.15 850 25.1 11.5 52.7 38 -2.2 28.1
03:55 1021 30.15 850 25.1 11.4 52.4 39 -2.2 28.1
04:00 1021 30.15 850 25.1 11.5 52.7 38 -2.1 28.1
04:05 1021 30.15 850 25.1 11.4 52.4 39 -2 28.4
04:10 1021 30.15 850 25.1 11.2 52.2 39 -2.1 28.3
04:15 1021 30.15 850 25.1 11.2 52.2 39 -2 28.4
04:20 1021 30.15 850 25.1 11.2 52.2 40 -1.9 28.6
04:25 1021 30.15 850 25.1 11.5 52.7 37 -2.7 27.2
04:30 1021 30.15 850 25.1 12.2 54 36 -2.3 27.9
04:35 1021 30.15 850 25.1 11.7 53.1 41 -1.2 29.9
04:40 1021 30.15 850 25.1 11 51.7 43 -1.2 29.9
04:45 1021 30.15 850 25.1 10.6 51 44 -1.3 29.7
04:50 1021 30.15 850 25.1 10.4 50.8 43 -1.5 29.3
04:55 1021 30.15 850 25.1 10.5 50.8 46 -0.7 30.8
05:00 1021 30.15 850 25.1 10 49.9 48 -0.6 30.9
05:05 1021 30.15 850 25.1 10 50.1 47 -0.7 30.7
05:10 1021 30.15 850 25.1 10.1 50.2 42 -2.1 28.3
05:15 1021 30.15 850 25.1 10.7 51.2 43 -1.4 29.5
05:20 1021 30.15 850 25.1 10.6 51.1 45 -0.8 30.5
05:25 1021 30.15 850 25.1 10.5 50.9 45 -0.7 30.7
05:30 1021 30.15 850 25.1 10.4 50.7 47 -0.5 31.2
05:35 1021 30.15 850 25.1 9.9 49.7 48 -0.5 31.1
05:40 1021 30.15 850 25.1 9.6 49.3 50 -0.2 31.6
05:45 1021 30.15 850 25.1 9.4 48.8 49 -0.7 30.7
05:50 1021 30.15 850 25.1 9.6 49.3 46 -1.6 29.2
05:55 1021 30.15 850 25.1 10.3 50.6 44 -1.4 29.5
06:00 1021 30.15 850 25.1 10.1 50.2 48 -0.4 31.3
06:05 1021 30.15 850 25.1 9.9 49.8 45 -1.6 29.2
06:10 1021 30.15 850 25.1 10.1 50.2 44 -1.5 29.3
06:15 1021 30.15 850 25.1 9.9 49.8 46 -1.2 29.8
06:20 1021 30.15 851 25.13 9.8 49.6 45 -1.4 29.5
06:25 1021 30.15 851 25.13 9.7 49.5 46 -1.3 29.6
06:30 1021 30.15 851 25.13 9.8 49.6 47 -0.9 30.4
06:35 1021 30.15 851 25.13 9.7 49.5 46 -1.2 29.8
06:40 1021 30.15 851 25.13 9.6 49.3 48 -0.9 30.3
06:45 1021 30.15 850 25.1 9.5 49.1 48 -0.9 30.4
06:50 1021 30.15 850 25.1 9.5 49 48 -0.9 30.3
06:55 1021 30.15 850 25.1 9.5 49.1 48 -0.9 30.4
07:00 1021 30.15 851 25.13 9.5 49.2 48 -0.8 30.5
07:05 1021 30.15 851 25.13 9.8 49.6 47 -1 30.2
07:10 1021 30.15 850 25.1 10 50 46 -1.1 30
07:15 1021 30.15 850 25.1 10.2 50.4 46 -0.8 30.6
07:20 1021 30.15 850 25.1 10.4 50.7 46 -0.9 30.5
07:25 1021 30.15 850 25.1 10.9 51.7 43 -1.2 29.8
07:30 1021 30.15 850 25.1 11.4 52.5 40 -1.8 28.8
07:35 1021 30.15 850 25.1 11.9 53.3 40 -1.2 29.9
07:40 1021 30.15 850 25.1 12.1 53.7 41 -0.7 30.7
07:45 1021 30.15 850 25.1 11.8 53.2 41 -0.9 30.3
07:50 1021 30.15 850 25.1 11.9 53.4 42 -0.7 30.8
07:55 1021 30.15 850 25.1 12.6 54.7 38 -1.2 29.8
08:00 1021 30.15 851 25.13 13.2 55.7 40 -0 31.9
08:05 1021 30.15 850 25.1 13.5 56.3 39 -0.2 31.6
08:10 1021 30.15 850 25.1 14 57.1 39 0.2 32.3
08:15 1021 30.15 850 25.1 14.2 57.6 38 0.3 32.6
08:20 1021 30.15 851 25.13 14.9 58.9 36 0.1 32.2
08:25 1021 30.15 851 25.13 15.6 60 36 0.5 33
08:30 1021 30.15 851 25.13 15.7 60.3 36 0.9 33.6
08:35 1021 30.15 851 25.13 16 60.7 37 1.2 34.2
08:40 1021 30.15 850 25.1 16.3 61.4 36 1.4 34.6
08:45 1021 30.15 850 25.1 17 62.7 29 -1 30.2
08:50 1021 30.15 850 25.1 17.1 62.7 30 -0.5 31.1
08:55 1021 30.15 850 25.1 17.2 62.9 31 -0 32
09:00 1021 30.15 850 25.1 17.2 62.9 28 -1.3 29.7
09:05 1021 30.15 850 25.1 17.6 63.8 28 -1 30.3
09:10 1021 30.15 850 25.1 18 64.5 29 -0 31.9
09:15 1021 30.15 850 25.1 18.3 65 29 0.3 32.6
09:20 1021 30.15 850 25.1 18.5 65.2 28 -0 32
09:25 1021 30.15 850 25.1 18.1 64.6 29 -0.1 31.8
09:30 1021 30.15 850 25.1 18.4 65.1 28 -0.2 31.7
09:35 1021 30.15 850 25.1 18.6 65.5 27 -0.8 30.5
09:40 1021 30.15 850 25.1 18.6 65.5 27 -0.4 31.3
09:45 1021 30.15 850 25.1 19 66.1 28 0.2 32.3
09:50 1021 30.15 850 25.1 19 66.3 28 0.4 32.8
09:55 1021 30.15 850 25.1 19.4 66.8 26 -0.6 31
10:00 1021 30.15 850 25.1 19.8 67.6 26 0 32
10:05 1021 30.15 850 25.1 19.6 67.2 25 -0.6 30.9
10:10 1021 30.15 850 25.1 19.8 67.6 25 -0.6 31
10:15 1021 30.15 850 25.1 20.5 69 24 -0.5 31
10:20 1021 30.15 850 25.1 20.4 68.8 24 -0.6 30.9
10:25 1021 30.15 850 25.1 21.4 70.5 22 -0.8 30.5
10:30 1021 30.15 850 25.1 22.3 72.1 21 -0.7 30.7
10:35 1021 30.15 850 25.1 22.1 71.7 22 -0.5 31.1
10:40 1021 30.15 850 25.1 22.1 71.7 21 -0.9 30.3
10:45 1021 30.15 850 25.1 22.3 72.1 22 -0.4 31.2
10:50 1020 30.12 850 25.1 22.2 72 21 -1.1 30
10:55 1020 30.12 850 25.1 23 73.3 20 -0.8 30.6
11:00 1020 30.12 850 25.1 22.8 73 22 0 32.1
11:05 1020 30.12 850 25.1 21.8 71.3 22 -0.4 31.4
11:10 1020 30.12 850 25.1 23.1 73.6 20 -0.7 30.8
11:15 1020 30.12 850 25.1 23.4 74.1 20 -0.6 30.9
11:20 1020 30.12 850 25.1 23.3 73.9 21 0.2 32.3
11:25 1021 30.15 850 25.1 23.6 74.5 21 0.2 32.4
11:30 1020 30.12 850 25.1 24.7 76.4 21 1 33.8
11:35 1020 30.12 850 25.1 24.3 75.7 23 1.8 35.2
11:40 1020 30.12 850 25.1 23.8 74.8 22 0.7 33.3
11:45 1020 30.12 850 25.1 23.5 74.2 23 1.6 34.8
11:50 1020 30.12 849 25.07 24 75.2 21 0.8 33.4
11:55 1020 30.12 849 25.07 24.7 76.4 21 1.4 34.6
12:00 1020 30.12 849 25.07 24.7 76.4 22 1.9 35.4
12:05 1020 30.12 849 25.07 23.5 74.3 24 1.8 35.3
12:10 1020 30.12 849 25.07 22.7 72.8 24 1.3 34.3
12:15 1020 30.12 849 25.07 23.6 74.4 24 1.7 35.1
12:20 1020 30.12 849 25.07 24.5 76.2 21 0.8 33.5
12:25 1020 30.12 849 25.07 25.1 77.2 19 0.2 32.3
12:30 1020 30.12 849 25.07 25.4 77.8 18 -0 31.9
12:35 1020 30.12 849 25.07 25.7 78.3 19 0.9 33.6
12:40 1020 30.12 849 25.07 25.4 77.6 19 0.6 33.1
12:45 1020 30.12 849 25.07 24.7 76.5 18 -0.8 30.6
12:50 1020 30.12 849 25.07 25.2 77.4 20 0.8 33.5
12:55 1020 30.12 849 25.07 25.5 78 18 -0 32
13:00 1020 30.12 849 25.07 26.2 79.2 18 0.4 32.8
13:05 1020 30.12 849 25.07 26 78.8 18 0 32
13:10 1020 30.12 849 25.07 26.2 79.2 19 0.9 33.5
13:15 1020 30.12 849 25.07 25.2 77.3 20 1 33.7
13:20 1020 30.12 849 25.07 25.1 77.2 21 1.3 34.4
13:25 1020 30.12 849 25.07 25.1 77.2 21 1.4 34.6
13:30 1020 30.12 849 25.07 25.1 77.3 21 1.7 35
13:35 1020 30.12 849 25.07 25.2 77.4 22 2.2 35.9
13:40 1020 30.12 849 25.07 25.3 77.6 22 2.7 36.8
13:45 1020 30.12 849 25.07 25.3 77.5 24 3.4 38.1
13:50 1020 30.12 849 25.07 24.7 76.4 26 3.9 39.1
13:55 1020 30.12 849 25.07 24.1 75.4 25 2.9 37.3
14:00 1020 30.12 849 25.07 23.9 75 25 3.1 37.6
14:05 1020 30.12 849 25.07 23.8 74.9 25 3.1 37.5
14:10 1020 30.12 849 25.07 23.8 74.8 25 3 37.3
14:15 1020 30.12 849 25.07 23.8 74.9 26 3.3 37.9
14:20 1020 30.12 849 25.07 23.8 74.8 25 2.9 37.2
14:25 1020 30.12 849 25.07 23.7 74.7 25 2.6 36.7
14:30 1020 30.12 849 25.07 23.2 73.8 26 3.1 37.5
14:35 1020 30.12 849 25.07 22.9 73.2 28 3.4 38.2
14:40 1020 30.12 849 25.07 23.2 73.8 25 2.4 36.3
14:45 1020 30.12 849 25.07 23.6 74.4 26 3 37.3
14:50 1020 30.12 849 25.07 23.4 74 27 3.4 38.1
14:55 1020 30.12 849 25.07 23.2 73.8 29 4.4 39.8
15:00 1020 30.12 849 25.07 22.8 73 30 4.6 40.3
15:05 1020 30.12 849 25.07 22.6 72.7 30 4.4 40
15:10 1019 30.09 849 25.07 22.5 72.4 30 4.2 39.5
15:15 1019 30.09 849 25.07 22.5 72.5 30 4.4 40
15:20 1019 30.09 849 25.07 22.3 72.2 32 4.9 40.9
15:25 1019 30.09 849 25.07 22.3 72.1 32 4.9 40.9
15:30 1019 30.09 849 25.07 22.4 72.2 30 4.3 39.7
15:35 1019 30.09 848 25.04 22.7 72.8 32 5.4 41.8
15:40 1019 30.09 848 25.04 22.7 72.9 33 5.9 42.7
15:45 1019 30.09 849 25.07 22.7 72.9 35 6.7 44.1
15:50 1019 30.09 849 25.07 22.5 72.6 34 5.9 42.7
15:55 1019 30.09 848 25.04 22.4 72.4 34 6 42.9
16:00 1019 30.09 849 25.07 22.3 72.2 35 6.3 43.4
16:05 1019 30.09 849 25.07 22.2 72 35 6.2 43.2
16:10 1019 30.09 848 25.04 22.3 72.2 32 5 41.1
16:15 1019 30.09 848 25.04 22.4 72.4 32 5.3 41.6
16:20 1019 30.09 848 25.04 22.3 72.1 34 5.9 42.6
16:25 1019 30.09 848 25.04 22.1 71.9 33 5.2 41.4
16:30 1019 30.09 848 25.04 22.2 71.9 32 4.8 40.7
16:35 1019 30.09 848 25.04 22 71.5 33 5.3 41.6
16:40 1018 30.06 847 25.01 22 71.7 31 4.4 40
16:45 1018 30.06 847 25.01 22.9 73.2 22 0.2 32.4
16:50 1018 30.06 847 25.01 24 75.1 24 2.6 36.6
16:55 1018 30.06 847 25.01 23.4 74.2 26 2.9 37.3
17:00 1018 30.06 847 25.01 23.2 73.7 27 3.4 38.2
17:05 1018 30.06 847 25.01 23 73.3 28 3.7 38.7
17:10 1018 30.06 847 25.01 22.9 73.1 27 3.2 37.8
17:15 1018 30.06 847 25.01 22.8 73 30 4.3 39.8
17:20 1018 30.06 847 25.01 22.6 72.6 28 3.6 38.4
17:25 1018 30.06 847 25.01 22.5 72.6 28 3.5 38.2
17:30 1018 30.06 847 25.01 22.5 72.4 29 3.9 39
17:35 1018 30.06 847 25.01 22.3 72.2 30 4.1 39.4
17:40 1018 30.06 847 25.01 22.2 71.9 31 4.4 39.9
17:45 1018 30.06 847 25.01 22.1 71.7 33 5.2 41.4
17:50 1018 30.06 847 25.01 21.8 71.3 33 5.2 41.4
17:55 1018 30.06 847 25.01 21.7 71 33 5 41
18:00 1018 30.06 848 25.04 21.4 70.5 34 5.2 41.3
18:05 1018 30.06 848 25.04 21.3 70.3 34 4.9 40.9
18:10 1018 30.06 847 25.01 21.4 70.4 32 4 39.1
18:15 1018 30.06 847 25.01 21.7 71 32 4.3 39.8
18:20 1018 30.06 847 25.01 21.8 71.2 31 3.9 39
18:25 1018 30.06 847 25.01 21.7 71.1 31 4 39.3
18:30 1018 30.06 847 25.01 21.6 70.8 33 4.6 40.3
18:35 1018 30.06 847 25.01 21.2 70.2 33 4.5 40.1
18:40 1018 30.06 847 25.01 21 69.9 34 4.9 40.8
18:45 1018 30.06 847 25.01 20.9 69.7 35 5.1 41.3
18:50 1018 30.06 847 25.01 20.8 69.4 36 5.2 41.4
18:55 1018 30.06 847 25.01 20.5 69 36 5.2 41.4
19:00 1018 30.06 847 25.01 20.3 68.5 37 5.4 41.7
19:05 1018 30.06 847 25.01 20.1 68.3 39 5.8 42.5
19:10 1018 30.06 847 25.01 20.2 68.3 37 5.3 41.5
19:15 1018 30.06 847 25.01 20.4 68.7 35 4.4 39.9
19:20 1018 30.06 847 25.01 20.8 69.4 32 3.7 38.7
19:25 1018 30.06 847 25.01 21 69.7 32 4 39.1
19:30 1018 30.06 847 25.01 20.7 69.3 33 4.2 39.5
19:35 1018 30.06 847 25.01 20.4 68.8 34 4.4 39.9
19:40 1018 30.06 847 25.01 20.3 68.5 35 4.3 39.8
19:45 1018 30.06 847 25.01 20.2 68.4 35 4.4 39.9
19:50 1018 30.06 847 25.01 20.2 68.3 34 4.1 39.4
19:55 1018 30.06 847 25.01 20.2 68.3 36 4.6 40.2
20:00 1018 30.06 847 25.01 19.9 67.9 36 4.5 40.1
20:05 1018 30.06 847 25.01 19.7 67.4 35 4 39.3
20:10 1018 30.06 848 25.04 19.8 67.6 36 4.5 40.1
20:15 1018 30.06 848 25.04 19.8 67.7 36 4.3 39.8
20:20 1018 30.06 848 25.04 19.9 67.9 34 3.7 38.6
20:25 1018 30.06 848 25.04 20.2 68.3 32 3.1 37.6
20:30 1018 30.06 848 25.04 20.8 69.4 31 3.4 38.1
20:35 1018 30.06 848 25.04 20.7 69.2 33 3.8 38.8
20:40 1018 30.06 848 25.04 20.2 68.4 33 3.4 38.2
20:45 1018 30.06 848 25.04 19.8 67.6 34 3.7 38.7
20:50 1018 30.06 848 25.04 19.4 66.8 35 3.8 38.8
20:55 1018 30.06 848 25.04 19.1 66.3 36 3.9 39
21:00 1018 30.06 848 25.04 19.1 66.4 36 4 39.2
21:05 1018 30.06 848 25.04 18.9 66.1 37 4.2 39.6
21:10 1018 30.06 848 25.04 18.8 65.8 39 4.5 40.1
21:15 1018 30.06 848 25.04 18.7 65.6 38 4.4 39.9
21:20 1018 30.06 848 25.04 18.7 65.6 39 4.5 40.1
21:25 1018 30.06 848 25.04 18.6 65.5 39 4.5 40
21:30 1018 30.06 848 25.04 18.6 65.4 39 4.4 40
21:35 1018 30.06 848 25.04 18.6 65.4 39 4.4 39.9
21:40 1018 30.06 848 25.04 18.5 65.4 39 4.4 39.9
21:45 1018 30.06 848 25.04 18.6 65.4 39 4.4 39.9
21:50 1018 30.06 848 25.04 18.6 65.4 39 4.3 39.8
21:55 1018 30.06 848 25.04 18.6 65.4 39 4.5 40.1
22:00 1019 30.09 848 25.04 18.5 65.2 39 4.4 39.9
22:05 1019 30.09 848 25.04 18.4 65.1 39 4.5 40.1
22:10 1018 30.06 848 25.04 18.1 64.7 40 4.4 39.9
22:15 1019 30.09 848 25.04 17.9 64.3 41 4.5 40
22:20 1019 30.09 848 25.04 17.7 63.8 41 4.4 40
22:25 1019 30.09 848 25.04 17.5 63.5 42 4.4 40
22:30 1019 30.09 848 25.04 17.3 63.2 42 4.3 39.7
22:35 1019 30.09 848 25.04 17.5 63.5 41 4.2 39.5
22:40 1019 30.09 848 25.04 17.5 63.5 42 4.5 40.1
22:45 1019 30.09 848 25.04 17.4 63.3 42 4.5 40
22:50 1018 30.06 848 25.04 17.2 63 43 4.7 40.4
22:55 1018 30.06 848 25.04 16.9 62.4 44 4.5 40.2
23:00 1018 30.06 848 25.04 16.8 62.2 43 4.4 39.8
23:05 1018 30.06 848 25.04 16.7 62 45 4.8 40.6
23:10 1018 30.06 848 25.04 16.6 61.9 45 4.7 40.5
23:15 1018 30.06 848 25.04 16.6 61.8 46 5.1 41.1
23:20 1018 30.06 848 25.04 16.3 61.3 49 5.6 42.1
23:25 1018 30.06 847 25.01 16 60.8 49 5.5 41.9
23:30 1018 30.06 847 25.01 16 60.8 52 6.2 43.2
23:35 1018 30.06 848 25.04 16.1 60.9 53 6.7 44
23:40 1018 30.06 848 25.04 15.9 60.5 52 6.1 43
23:45 1018 30.06 848 25.04 15.2 59.4 54 6.1 43
23:50 1019 30.09 848 25.04 14.8 58.6 56 6.1 42.9
23:55 1019 30.09 848 25.04 14.9 58.8 56 6.2 43.2
24:00 1019 30.09 848 25.04 15 58.9 55 6.2 43.2